CheckWX is a tool to help pilots better visualize weather data.  It is not intended as a substitute for an official pre-flight weather briefing.

07:18:46 UTC

OETR TAF
Turaif Domestic Airport
Saudi Arabia
TAF OETR 172300Z 1800/1906 09010G20KT 7000 FEW040 SCT100 BECMG 1812/1814 24010KT

Sep-18@
00:00 UTC

Sep-18 @ 00:00 UTC

Sep-18@
12:00 UTC

Sep-18 @ 12:00 UTC

TAF OETR 172300Z 1800/1906 09010G20KT 7000 FEW040 SCT100
Wind
  • 090° at 10 KTS
  • {Gusting to 20 KTS
Cloud Levels
  • Few at 4,000' AGL
  • Scattered at 10,000' AGL

Sep-18@
12:00 UTC

Sep-18 @ 12:00 UTC

Sep-19@
06:00 UTC

Sep-19 @ 06:00 UTC

BECMG 1812/1814 24010KT

Becoming

Becoming Conditions expected by Wed, Sep 18, 2019 @ 14:00 UTC

Wind
  • 240° at 10 KTS
Cloud Levels
  • Few at 4,000' AGL
  • Scattered at 10,000' AGL